ADDS METAR Data INFO
IDs: Format: Raw Decoded Include TAF

Data at: 1846 UTC 17 Oct 2017

KACK 171753Z 02009G17KT 10SM CLR 12/03 A3025 RMK AO2 SLP241 T01220028 10128 20094 58004
KACK 171653Z 02011G18KT 10SM CLR 12/02 A3026 RMK AO2 SLP246 T01220022
KACK 171553Z 03012G20KT 10SM CLR 12/02 A3026 RMK AO2 SLP248 T01220022
KACK 171453Z 36016KT 10SM SCT041 12/02 A3026 RMK AO2 SLP245 T01170022 51012
KACK 171353Z 01019G26KT 10SM CLR 11/02 A3025 RMK AO2 PK WND 36026/1348 SLP244 T01110017
KACK 171253Z 36015KT 10SM FEW042 11/02 A3025 RMK AO2 PK WND 02026/1205 SLP242 T01060017
KACK 171153Z 01017KT 10SM CLR 09/01 A3022 RMK AO2 SLP234 T00940011 10106 20089 53022
KACK 171053Z 01013KT 10SM OVC043 09/02 A3020 RMK AO2 SLP226 T00940022
KACK 170953Z 01016KT 10SM BKN039 OVC047 10/04 A3017 RMK AO2 SLP217 T01000039
KACK 170853Z AUTO 36014KT 10SM OVC040 10/04 A3016 RMK AO2 SLP212 T01000044 53017 TSNO
KACK 170753Z AUTO 01017G22KT 10SM BKN035 OVC045 10/05 A3013 RMK AO2 SLP203 T01000050 TSNO
KACK 170653Z AUTO 01016KT 10SM FEW023 BKN038 BKN048 09/06 A3011 RMK AO2 SLP197 T00940061 TSNO
KACK 170626Z AUTO 01014KT 10SM FEW019 SCT024 OVC034 10/07 A3011 RMK AO2 T01000072 TSNO
KACK 170553Z AUTO 35016G25KT 10SM OVC027 11/07 A3011 RMK AO2 PK WND 34026/0509 SLP195 T01060072 10128 20106 51012 TSNO
KACK 170453Z AUTO 34017G24KT 10SM OVC024 11/07 A3010 RMK AO2 PK WND 35027/0426 SLP193 T01060067 401940106 TSNO
KACK 170417Z AUTO 35016G25KT 10SM BKN024 BKN029 OVC040 11/07 A3009 RMK AO2 PK WND 35026/0359 T01110072 TSNO
KACK 170353Z AUTO 35021G26KT 10SM FEW026 BKN037 OVC046 11/07 A3009 RMK AO2 PK WND 36026/0338 SLP189 T01110067 TSNO
KACK 170330Z AUTO 34020G26KT 10SM FEW026 BKN035 OVC043 11/07 A3008 RMK AO2 PK WND 35026/0330 T01110067 TSNO
KACK 170253Z AUTO 35019G26KT 10SM OVC029 12/07 A3007 RMK AO2 PK WND 34029/0239 SLP184 T01170067 51021 TSNO
KACK 170233Z AUTO 34017G25KT 10SM OVC029 12/07 A3007 RMK AO2 T01170067 TSNO
KACK 170153Z AUTO 35015G25KT 10SM OVC030 12/07 A3006 RMK AO2 SLP178 T01220072 TSNO
KACK 170053Z 34012KT 10SM OVC033 13/07 A3004 RMK AO2 SLP172 T01280072
KACK 162353Z 36014G20KT 10SM BKN029 OVC040 13/08 A3001 RMK AO2 SLP162 60000 T01280078 10167 20128 53016
KACK 162253Z 34012KT 10SM BKN029 OVC036 13/08 A3000 RMK AO2 SLP158 T01280083
KACK 162153Z 02016G22KT 10SM OVC034 13/08 A2993 RMK AO2 SLP136 T01280078
KACK 162053Z 36013KT 10SM OVC031 13/09 A2996 RMK AO2 RAB07E20 SLP147 P0000 60000 T01330089 53019
KACK 161953Z 01014KT 10SM BKN030 14/09 A2992 RMK AO2 SLP132 T01390094
KACK 161853Z 36012KT 10SM FEW044 SCT120 15/11 A2990 RMK AO2 RAB1758E07 SLP126 P0000 T01500106
KACK 161753Z 35010KT 10SM FEW028 OVC045 17/12 A2991 RMK AO2 SLP128 T01670117 10194 20167 53004
KACK 161653Z 34010KT 10SM SCT047 SCT120 17/12 A2989 RMK AO2 SLP123 T01720117
KACK 161553Z 31010KT 10SM OVC042 17/12 A2991 RMK AO2 SLP127 T01720122
KACK 161453Z 29011KT 10SM BKN041 OVC090 17/14 A2990 RMK AO2 SLP124 T01670139 51021
KACK 161353Z 29009KT 10SM FEW050 OVC100 18/15 A2988 RMK AO2 SLP119 T01830150
KACK 161253Z 31010KT 10SM FEW034 BKN100 OVC110 19/16 A2986 RMK AO2 SLP110 T01890156
KACK 161204Z 28008KT 5SM BR SCT005 OVC014 18/18 A2984 RMK AO2 T01830183
KACK 161153Z 27011KT 3SM BR BKN005 OVC010 18/18 A2983 RMK AO2 CIG 004V008 SLP103 T01830183 10183 20178 53015
KACK 161133Z 26013KT 5SM BR BKN008 BKN020 OVC028 18/18 A2982 RMK AO2 CIG 005V013 T01830183
KACK 161112Z 24011KT 4SM BR SCT011 OVC030 18/18 A2981 RMK AO2 T01830183 $
KACK 161053Z 25011KT 5SM BR BKN011 OVC028 18/18 A2980 RMK AO2 SLP092 T01780178 $
KACK 160953Z 23014KT 6SM BR SCT015 OVC021 18/18 A2980 RMK AO2 SLP089 T01830183 $
KACK 160919Z AUTO 22012KT 6SM BR SCT010 OVC020 18/18 A2979 RMK AO2 T01830183 TSNO $
KACK 160912Z AUTO 22014KT 6SM BR BKN010 OVC020 18/18 A2979 RMK AO2 CIG 008V013 T01830183 TSNO $
KACK 160853Z AUTO 22014KT 6SM BR OVC008 18/18 A2979 RMK AO2 CIG 006V010 SLP087 T01830183 56010 TSNO $
KACK 160753Z AUTO 22013KT 6SM BR OVC006 18/18 A2979 RMK AO2 SLP089 T01830183 TSNO $
KACK 160653Z AUTO 23017KT 7SM OVC006 18/18 A2980 RMK AO2 PK WND 23026/0631 SLP092 T01830183 TSNO $